createdAt,value
2019-05-10T00:00:28.140Z,10.42
2019-05-10T00:05:50.705Z,10.20
2019-05-10T00:11:05.974Z,10.14
2019-05-10T00:16:12.504Z,10.38
2019-05-10T00:21:17.082Z,10.45
2019-05-10T00:26:22.852Z,10.31
2019-05-10T00:31:27.465Z,10.32
2019-05-10T00:36:32.121Z,10.22
2019-05-10T00:41:36.793Z,10.21
2019-05-10T00:46:41.535Z,10.16
2019-05-10T00:51:46.098Z,10.24
2019-05-10T00:56:50.747Z,10.15
2019-05-10T01:01:55.466Z,10.07
2019-05-10T01:07:00.209Z,9.97
2019-05-10T01:12:04.950Z,9.91
2019-05-10T01:17:09.501Z,9.87
2019-05-10T01:22:14.208Z,9.78
2019-05-10T01:27:18.823Z,9.83
2019-05-10T01:32:23.540Z,9.79
2019-05-10T01:37:28.192Z,9.76
2019-05-10T01:42:32.838Z,9.76
2019-05-10T01:47:37.413Z,9.84
2019-05-10T01:52:41.998Z,9.91
2019-05-10T01:57:46.562Z,9.89
2019-05-10T02:02:51.198Z,9.98
2019-05-10T02:07:55.763Z,10.02
2019-05-10T02:13:00.242Z,10.19
2019-05-10T02:18:05.347Z,10.14
2019-05-10T02:23:10.019Z,10.16
2019-05-10T02:28:14.594Z,10.09
2019-05-10T02:33:19.109Z,10.03
2019-05-10T02:38:23.671Z,10.07
2019-05-10T02:43:28.395Z,9.93
2019-05-10T02:48:33.091Z,9.98
2019-05-10T02:53:37.594Z,9.97
2019-05-10T02:58:44.043Z,9.91
2019-05-10T03:03:50.228Z,9.77
2019-05-10T03:08:55.002Z,9.75
2019-05-10T03:14:02.521Z,9.77
2019-05-10T03:19:08.832Z,9.71
2019-05-10T03:24:13.743Z,9.67
2019-05-10T03:29:18.468Z,9.74
2019-05-10T03:34:23.059Z,9.67
2019-05-10T03:39:27.980Z,9.88
2019-05-10T03:44:32.593Z,9.80
2019-05-10T03:49:37.314Z,10.00
2019-05-10T03:54:41.993Z,10.15
2019-05-10T03:59:46.562Z,10.16
2019-05-10T04:04:51.178Z,10.07
2019-05-10T04:09:55.790Z,10.43
2019-05-10T04:15:00.411Z,11.37
2019-05-10T04:20:09.668Z,11.54
2019-05-10T04:25:14.582Z,11.66
2019-05-10T04:30:20.290Z,11.77
2019-05-10T04:35:24.877Z,12.71
2019-05-10T04:40:29.491Z,13.69
2019-05-10T04:45:34.175Z,14.50
2019-05-10T04:50:38.905Z,13.36
2019-05-10T04:55:43.594Z,11.55
2019-05-10T05:00:48.241Z,10.96
2019-05-10T05:05:52.764Z,10.63
2019-05-10T05:10:57.852Z,10.60
2019-05-10T05:16:02.593Z,10.37
2019-05-10T05:21:07.213Z,10.30
2019-05-10T05:26:11.729Z,10.55
2019-05-10T05:31:16.292Z,10.81
2019-05-10T05:36:20.961Z,11.44
2019-05-10T05:41:25.655Z,13.16
2019-05-10T05:46:30.265Z,13.81
2019-05-10T05:51:34.881Z,13.70
2019-05-10T05:56:39.458Z,13.46
2019-05-10T06:01:44.721Z,13.35
2019-05-10T06:06:53.696Z,13.18
2019-05-10T06:11:55.949Z,13.04
2019-05-10T06:17:00.475Z,13.51
2019-05-10T06:22:07.010Z,13.48
2019-05-10T06:27:11.438Z,13.39
2019-05-10T06:32:16.039Z,13.67
2019-05-10T06:37:20.683Z,14.03
2019-05-10T06:42:28.879Z,13.98
2019-05-10T06:47:31.737Z,13.65
2019-05-10T06:52:36.319Z,13.42
2019-05-10T06:57:40.876Z,12.95
2019-05-10T07:02:46.571Z,12.72
2019-05-10T07:07:51.146Z,12.44
2019-05-10T07:12:57.026Z,12.24
2019-05-10T07:18:02.072Z,12.56
2019-05-10T07:23:07.922Z,13.01
2019-05-10T07:28:15.781Z,15.70
2019-05-10T07:33:20.414Z,18.49
2019-05-10T07:38:30.673Z,16.84
2019-05-10T07:43:31.241Z,16.84
2019-05-10T07:48:40.955Z,17.95
2019-05-10T07:53:42.159Z,17.51
2019-05-10T07:58:46.794Z,16.49
2019-05-10T08:03:52.482Z,15.01
2019-05-10T08:09:01.826Z,14.39
2019-05-10T08:14:08.925Z,13.44
2019-05-10T08:19:12.229Z,13.41
2019-05-10T08:24:16.878Z,13.57
2019-05-10T08:29:22.526Z,15.27
2019-05-10T08:34:29.086Z,16.18
2019-05-10T08:39:43.905Z,16.90
2019-05-10T08:44:39.792Z,16.09
2019-05-10T08:49:56.997Z,16.19
2019-05-10T08:54:55.026Z,14.85
2019-05-10T09:00:06.981Z,17.35
2019-05-10T09:05:04.886Z,19.09
2019-05-10T09:10:09.899Z,20.69
2019-05-10T09:15:14.854Z,21.44
2019-05-10T09:20:25.948Z,21.61
2019-05-10T09:25:29.525Z,20.13
2019-05-10T09:30:35.493Z,20.53
2019-05-10T09:35:47.048Z,19.88
2019-05-10T09:40:53.003Z,18.38
2019-05-10T09:45:53.939Z,19.56
2019-05-10T09:51:03.414Z,18.76
2019-05-10T09:56:05.088Z,18.26
2019-05-10T10:01:17.802Z,18.99
2019-05-10T10:06:17.174Z,19.39
2019-05-10T10:11:21.795Z,20.94
2019-05-10T10:16:28.202Z,20.42
2019-05-10T10:21:35.474Z,20.72
2019-05-10T10:26:39.136Z,19.21
2019-05-10T10:31:51.523Z,18.15
2019-05-10T10:36:50.134Z,18.49
2019-05-10T10:41:56.931Z,19.74
2019-05-10T10:47:01.350Z,20.46
2019-05-10T10:52:11.423Z,20.55
2019-05-10T10:57:12.311Z,19.77
2019-05-10T11:02:32.112Z,18.41
2019-05-10T11:07:23.332Z,17.61
2019-05-10T11:12:28.132Z,17.44
2019-05-10T11:17:32.709Z,16.26
2019-05-10T11:22:42.095Z,15.97
2019-05-10T11:27:47.615Z,16.04
2019-05-10T11:32:50.151Z,16.63
2019-05-10T11:37:54.809Z,16.28
2019-05-10T11:43:01.523Z,16.46
2019-05-10T11:48:05.865Z,16.42
2019-05-10T11:53:13.293Z,16.81
2019-05-10T11:58:16.700Z,16.59
2019-05-10T12:03:23.502Z,17.11
2019-05-10T12:08:27.736Z,17.19
2019-05-10T12:13:32.823Z,18.08
2019-05-10T12:18:46.309Z,17.93
2019-05-10T12:23:50.382Z,17.93
2019-05-10T12:28:51.165Z,17.77
2019-05-10T12:34:02.531Z,17.01
2019-05-10T12:39:04.715Z,17.08
2019-05-10T12:44:11.232Z,16.96
2019-05-10T12:49:15.851Z,16.89
2019-05-10T12:54:23.781Z,16.89
2019-05-10T12:59:29.634Z,17.13
2019-05-10T13:04:40.578Z,17.39
2019-05-10T13:09:40.928Z,17.13
2019-05-10T13:14:49.791Z,17.19
2019-05-10T13:19:57.794Z,16.78
2019-05-10T13:24:59.674Z,17.38
2019-05-10T13:30:05.588Z,16.86
2019-05-10T13:35:10.494Z,16.86
2019-05-10T13:40:16.811Z,17.14
2019-05-10T13:45:21.638Z,16.81
2019-05-10T13:50:28.100Z,17.59
2019-05-10T13:55:33.834Z,17.93
2019-05-10T14:00:38.531Z,17.87
2019-05-10T14:05:43.312Z,17.97
2019-05-10T14:10:49.580Z,17.39
2019-05-10T14:15:54.514Z,17.81
2019-05-10T14:20:58.972Z,17.98
2019-05-10T14:26:03.700Z,17.98
2019-05-10T14:31:08.452Z,17.77
2019-05-10T14:36:13.093Z,18.17
2019-05-10T14:41:20.914Z,18.12
2019-05-10T14:46:25.570Z,17.63
2019-05-10T14:51:44.171Z,17.62
2019-05-10T14:56:36.488Z,17.93
2019-05-10T15:01:43.041Z,17.71
2019-05-10T15:06:47.277Z,17.61
2019-05-10T15:11:51.937Z,17.06
2019-05-10T15:16:56.501Z,16.55
2019-05-10T15:22:01.089Z,16.87
2019-05-10T15:27:05.784Z,16.71
2019-05-10T15:32:10.640Z,16.83
2019-05-10T15:37:17.595Z,16.75
2019-05-10T15:42:22.054Z,16.73
2019-05-10T15:47:26.867Z,16.84
2019-05-10T15:52:31.576Z,17.11
2019-05-10T15:57:36.294Z,17.20
2019-05-10T16:02:40.996Z,16.78
2019-05-10T16:07:46.569Z,16.50
2019-05-10T16:12:52.148Z,16.13
2019-05-10T16:17:59.710Z,16.02
2019-05-10T16:23:08.767Z,15.88
2019-05-10T16:28:09.417Z,15.70
2019-05-10T16:33:15.606Z,15.80
2019-05-10T16:38:23.098Z,15.89
2019-05-10T16:43:27.573Z,16.02
2019-05-10T16:48:32.201Z,16.05
2019-05-10T16:53:37.792Z,15.83
2019-05-10T16:58:47.709Z,15.86
2019-05-10T17:03:51.226Z,15.70
2019-05-10T17:08:55.839Z,15.58
2019-05-10T17:14:01.619Z,15.50
2019-05-10T17:19:06.481Z,15.49
2019-05-10T17:24:10.985Z,15.36
2019-05-10T17:29:15.588Z,15.29
2019-05-10T17:34:27.619Z,15.18
2019-05-10T17:39:32.379Z,15.12
2019-05-10T17:44:32.830Z,14.94
2019-05-10T17:49:37.479Z,14.97
2019-05-10T17:54:42.161Z,14.88
2019-05-10T17:59:53.084Z,14.86
2019-05-10T18:04:53.841Z,14.80
2019-05-10T18:09:58.430Z,14.84
2019-05-10T18:15:04.983Z,14.75
2019-05-10T18:20:10.486Z,14.63
2019-05-10T18:25:20.401Z,14.46
2019-05-10T18:30:22.401Z,14.48
2019-05-10T18:35:27.143Z,14.44
2019-05-10T18:40:32.190Z,14.50
2019-05-10T18:45:39.001Z,14.51
2019-05-10T18:50:45.133Z,14.50
2019-05-10T18:55:49.943Z,14.53
2019-05-10T19:00:56.133Z,14.53
2019-05-10T19:06:04.046Z,14.51
2019-05-10T19:11:07.381Z,14.40
2019-05-10T19:16:12.560Z,14.45
2019-05-10T19:21:17.238Z,14.31
2019-05-10T19:26:23.772Z,14.29
2019-05-10T19:31:31.675Z,14.21
2019-05-10T19:36:35.706Z,14.09
2019-05-10T19:42:04.427Z,13.99
2019-05-10T19:47:15.317Z,13.99
2019-05-10T19:52:14.309Z,13.93
2019-05-10T19:57:19.068Z,13.91
2019-05-10T20:02:23.684Z,13.80
2019-05-10T20:07:44.066Z,13.57
2019-05-10T20:12:53.861Z,13.38
2019-05-10T20:17:58.576Z,13.32
2019-05-10T20:23:03.341Z,13.13
2019-05-10T20:28:07.898Z,12.99
2019-05-10T20:33:12.629Z,12.84
2019-05-10T20:38:17.253Z,12.75
2019-05-10T20:43:21.946Z,12.64
2019-05-10T20:48:26.534Z,12.79
2019-05-10T20:53:31.277Z,12.81
2019-05-10T20:58:35.857Z,12.74
2019-05-10T21:03:40.498Z,12.75
2019-05-10T21:08:45.066Z,12.74
2019-05-10T21:13:49.834Z,12.82
2019-05-10T21:18:54.579Z,12.91
2019-05-10T21:23:59.120Z,12.86
2019-05-10T21:29:04.485Z,12.82
2019-05-10T21:34:10.245Z,12.81
2019-05-10T21:39:15.084Z,12.77
2019-05-10T21:44:19.733Z,12.73
2019-05-10T21:49:24.457Z,12.65
2019-05-10T21:54:29.147Z,12.68
2019-05-10T21:59:33.796Z,12.61
2019-05-10T22:04:38.280Z,12.60
2019-05-10T22:09:42.991Z,12.45
2019-05-10T22:14:47.482Z,12.40
2019-05-10T22:19:52.050Z,12.37
2019-05-10T22:24:56.774Z,12.21
2019-05-10T22:30:01.262Z,12.12
2019-05-10T22:35:07.179Z,12.09
2019-05-10T22:40:11.882Z,12.08
2019-05-10T22:45:16.595Z,12.03
2019-05-10T22:50:21.241Z,12.00
2019-05-10T22:55:25.916Z,12.11
2019-05-10T23:00:30.727Z,12.14
2019-05-10T23:05:35.365Z,12.20
2019-05-10T23:10:40.145Z,12.14
2019-05-10T23:15:44.717Z,12.18
2019-05-10T23:20:49.291Z,12.13
2019-05-10T23:25:53.909Z,12.07
2019-05-10T23:30:58.451Z,12.07
2019-05-10T23:36:03.154Z,12.09
2019-05-10T23:41:07.931Z,12.06
2019-05-10T23:46:12.717Z,11.95
2019-05-10T23:51:17.518Z,11.92
2019-05-10T23:56:22.434Z,11.88
